Time;durP1;ratioP1;P1;durP2;ratioP2;P2;SDS_P1;SDS_P2;PMS_P1;PMS_P2;Temp;Humidity;BMP_temperature;BMP_pressure;BME280_temperature;BME280_humidity;BME280_pressure;Samples;Min_cycle;Max_cycle;Signal;HPM_P1;HPM_P2
2022/11/22 00:01:53;;;;;;;0.70;0.70;;;4.30;99.90;;;;;;4950991;28;20259;-83
2022/11/22 00:04:19;;;;;;;0.70;0.70;;;4.50;99.90;;;;;;4964542;28;20435;-82
2022/11/22 00:06:44;;;;;;;0.70;0.70;;;4.40;99.90;;;;;;4939412;28;20068;-80
2022/11/22 00:09:11;;;;;;;0.70;0.70;;;4.40;99.90;;;;;;4956771;28;20168;-82
2022/11/22 00:11:45;;;;;;;0.80;0.80;;;4.50;99.90;;;;;;4941333;28;20307;-82
2022/11/22 00:14:11;;;;;;;0.70;0.70;;;4.50;99.90;;;;;;4959281;28;20056;-81
2022/11/22 00:16:37;;;;;;;0.70;0.70;;;4.40;99.90;;;;;;4963744;28;20336;-81
2022/11/22 00:19:03;;;;;;;0.70;0.70;;;4.60;99.90;;;;;;4948094;28;20515;-82
2022/11/22 00:21:28;;;;;;;0.80;0.80;;;4.50;99.90;;;;;;4962348;28;20040;-80
2022/11/22 00:23:57;;;;;;;0.80;0.80;;;4.50;99.90;;;;;;4962495;28;20563;-80
2022/11/22 00:26:23;;;;;;;0.80;0.80;;;4.50;99.90;;;;;;4966633;28;20047;-82
2022/11/22 00:28:49;;;;;;;0.80;0.80;;;4.50;99.90;;;;;;4958635;28;20824;-81
2022/11/22 00:31:15;;;;;;;0.70;0.70;;;4.60;99.90;;;;;;4986232;28;20055;-81
2022/11/22 00:33:41;;;;;;;0.70;0.70;;;4.60;99.90;;;;;;4964789;28;20617;-81
2022/11/22 00:36:07;;;;;;;0.70;0.70;;;4.60;99.90;;;;;;4943735;28;20048;-81
2022/11/22 00:38:32;;;;;;;0.70;0.70;;;4.70;99.90;;;;;;4961086;28;20472;-82
2022/11/22 00:40:58;;;;;;;0.70;0.70;;;4.50;99.90;;;;;;4963955;28;20040;-81
2022/11/22 00:43:24;;;;;;;0.80;0.80;;;4.70;99.90;;;;;;4957528;28;20044;-81
2022/11/22 00:45:50;;;;;;;0.70;0.70;;;4.60;99.90;;;;;;4977561;28;20576;-81
2022/11/22 00:48:15;;;;;;;0.80;0.80;;;4.60;99.90;;;;;;4964425;28;20491;-79
2022/11/22 00:50:41;;;;;;;0.73;0.73;;;4.80;99.90;;;;;;4979719;28;20128;-82
2022/11/22 00:53:07;;;;;;;0.73;0.73;;;4.60;99.90;;;;;;4974497;28;20679;-80
2022/11/22 00:55:33;;;;;;;0.80;0.80;;;4.60;99.90;;;;;;4954448;28;20044;-81
2022/11/22 00:57:59;;;;;;;0.70;0.70;;;4.70;99.90;;;;;;4940768;28;20132;-81
2022/11/22 01:00:25;;;;;;;0.70;0.70;;;4.80;99.90;;;;;;4936247;28;20386;-80
2022/11/22 01:02:50;;;;;;;0.70;0.70;;;4.70;99.90;;;;;;4953857;28;20052;-81
2022/11/22 01:05:17;;;;;;;0.80;0.80;;;4.70;99.90;;;;;;4954958;28;20829;-81
2022/11/22 01:07:43;;;;;;;0.70;0.70;;;4.80;99.90;;;;;;4961814;28;20465;-81
2022/11/22 01:10:09;;;;;;;0.70;0.70;;;4.80;99.90;;;;;;4959290;28;20862;-80
2022/11/22 01:12:35;;;;;;;0.80;0.80;;;4.80;99.90;;;;;;4963545;28;20876;-81
2022/11/22 01:15:02;;;;;;;0.70;0.70;;;4.70;99.90;;;;;;4947497;28;20059;-79
2022/11/22 01:17:28;;;;;;;0.70;0.70;;;4.70;99.90;;;;;;4945816;28;20507;-81
2022/11/22 01:19:53;;;;;;;0.77;0.77;;;4.80;99.90;;;;;;4929461;28;20353;-81
2022/11/22 01:22:19;;;;;;;0.70;0.70;;;4.80;99.90;;;;;;4952403;28;20039;-80
2022/11/22 01:24:45;;;;;;;0.70;0.70;;;4.80;99.90;;;;;;4962334;28;20319;-81
2022/11/22 01:27:11;;;;;;;0.70;0.70;;;4.80;99.90;;;;;;4963906;28;20407;-80
2022/11/22 01:29:37;;;;;;;0.70;0.70;;;4.90;99.90;;;;;;4955225;28;20437;-81
2022/11/22 01:32:03;;;;;;;0.80;0.80;;;4.80;99.90;;;;;;4965180;28;20048;-81
2022/11/22 01:34:28;;;;;;;0.70;0.70;;;4.80;99.90;;;;;;4974653;28;20428;-82
2022/11/22 01:36:54;;;;;;;0.80;0.80;;;5.00;99.90;;;;;;4960538;28;20734;-81
2022/11/22 01:39:20;;;;;;;0.70;0.70;;;4.90;99.90;;;;;;4940918;28;20056;-82
2022/11/22 01:41:45;;;;;;;0.80;0.80;;;4.80;99.90;;;;;;4944388;28;20053;-82
2022/11/22 01:44:21;;;;;;;0.80;0.80;;;4.90;99.90;;;;;;4947614;28;20052;-82
2022/11/22 01:46:52;;;;;;;0.70;0.70;;;5.00;99.90;;;;;;4955375;28;20445;-82
2022/11/22 01:49:51;;;;;;;0.80;0.80;;;5.00;99.90;;;;;;4957679;28;20151;-82
2022/11/22 01:52:19;;;;;;;0.70;0.70;;;4.90;99.90;;;;;;4980622;28;20610;-80
2022/11/22 01:54:57;;;;;;;0.80;0.80;;;5.00;99.90;;;;;;4957926;28;20128;-79
2022/11/22 01:57:29;;;;;;;0.75;0.75;;;5.00;99.90;;;;;;4970152;28;20144;-80
2022/11/22 02:00:00;;;;;;;0.70;0.70;;;4.90;99.90;;;;;;4960994;28;20052;-81
2022/11/22 02:02:27;;;;;;;0.73;0.73;;;4.90;99.90;;;;;;4953800;28;20044;-79
2022/11/22 02:04:56;;;;;;;0.75;0.75;;;4.90;99.90;;;;;;4933633;28;20784;-80
2022/11/22 02:07:31;;;;;;;0.80;0.80;;;5.00;99.90;;;;;;4951184;28;20505;-81
2022/11/22 02:09:57;;;;;;;0.80;0.80;;;4.90;99.90;;;;;;4956885;28;20063;-82
2022/11/22 02:12:28;;;;;;;0.70;0.70;;;5.00;99.90;;;;;;4962130;28;20044;-81
2022/11/22 02:14:54;;;;;;;0.80;0.80;;;4.90;99.90;;;;;;4956859;28;20090;-82
2022/11/22 02:17:21;;;;;;;0.80;0.80;;;5.10;99.90;;;;;;4940475;28;20105;-80
2022/11/22 02:19:49;;;;;;;0.80;0.80;;;5.00;99.90;;;;;;4946408;28;20040;-82
2022/11/22 02:22:15;;;;;;;0.80;0.80;;;5.00;99.90;;;;;;4943084;28;20482;-81
2022/11/22 02:24:52;;;;;;;0.80;0.80;;;4.90;99.90;;;;;;4958008;28;20094;-80
2022/11/22 02:27:18;;;;;;;0.80;0.80;;;5.00;99.90;;;;;;4958512;28;20053;-81
2022/11/22 02:29:44;;;;;;;0.80;0.80;;;5.00;99.90;;;;;;4955211;28;20083;-82
2022/11/22 02:32:09;;;;;;;0.80;0.80;;;5.00;99.90;;;;;;4952360;28;20078;-82
2022/11/22 02:34:47;;;;;;;0.80;0.80;;;5.10;99.90;;;;;;4951996;28;20801;-81
2022/11/22 02:37:17;;;;;;;0.80;0.80;;;5.10;99.90;;;;;;4972471;28;20273;-80
2022/11/22 02:39:45;;;;;;;0.80;0.80;;;5.20;99.90;;;;;;4977086;28;20048;-81
2022/11/22 02:42:11;;;;;;;0.80;0.80;;;5.10;99.90;;;;;;4961712;28;20611;-81
2022/11/22 02:44:38;;;;;;;0.80;0.80;;;5.10;99.90;;;;;;4976753;28;20480;-81
2022/11/22 02:47:04;;;;;;;0.80;0.80;;;5.20;99.90;;;;;;4959539;28;20581;-81
2022/11/22 02:49:29;;;;;;;0.80;0.80;;;5.10;99.90;;;;;;4960762;28;20069;-81
2022/11/22 02:51:55;;;;;;;0.70;0.70;;;5.10;99.90;;;;;;4957859;28;20044;-81
2022/11/22 02:54:21;;;;;;;0.80;0.80;;;5.20;99.90;;;;;;4953994;28;20117;-80
2022/11/22 02:56:47;;;;;;;0.70;0.70;;;5.20;99.90;;;;;;4964228;28;20051;-80
2022/11/22 02:59:13;;;;;;;0.80;0.80;;;5.30;99.90;;;;;;4974095;28;20048;-82
2022/11/22 03:01:40;;;;;;;0.70;0.70;;;5.10;99.90;;;;;;4973916;28;20141;-82
2022/11/22 03:04:06;;;;;;;0.70;0.70;;;5.30;99.90;;;;;;4942174;28;20060;-82
2022/11/22 03:06:32;;;;;;;0.80;0.80;;;5.30;99.90;;;;;;4983404;28;20056;-81
2022/11/22 03:08:57;;;;;;;0.80;0.80;;;5.20;99.90;;;;;;4946790;28;20056;-82
2022/11/22 03:11:24;;;;;;;0.80;0.80;;;5.30;99.90;;;;;;4959854;28;20390;-83
2022/11/22 03:13:50;;;;;;;0.80;0.80;;;5.20;99.90;;;;;;4970171;28;20163;-82
2022/11/22 03:16:15;;;;;;;0.80;0.80;;;5.40;99.90;;;;;;4976293;28;20613;-82
2022/11/22 03:18:41;;;;;;;0.70;0.70;;;5.40;99.90;;;;;;4964921;28;20044;-81
2022/11/22 03:21:09;;;;;;;0.80;0.80;;;5.40;99.90;;;;;;4968713;28;20299;-82
2022/11/22 03:23:38;;;;;;;0.70;0.70;;;5.40;99.90;;;;;;4970058;28;20128;-83
2022/11/22 03:26:09;;;;;;;0.70;0.70;;;5.50;99.90;;;;;;4959773;28;20053;-82
2022/11/22 03:28:35;;;;;;;0.70;0.70;;;5.50;99.90;;;;;;4962631;28;20076;-81
2022/11/22 03:31:03;;;;;;;0.80;0.80;;;5.50;99.90;;;;;;4966140;28;20062;-82
2022/11/22 03:33:29;;;;;;;0.80;0.80;;;5.50;99.90;;;;;;4960772;28;20470;-82
2022/11/22 03:35:56;;;;;;;0.70;0.70;;;5.50;99.90;;;;;;4957837;28;20052;-82
2022/11/22 03:38:22;;;;;;;0.80;0.80;;;5.50;99.90;;;;;;4953400;28;20139;-82
2022/11/22 03:40:48;;;;;;;0.70;0.70;;;5.50;99.90;;;;;;4965110;28;20040;-82
2022/11/22 03:43:13;;;;;;;0.70;0.70;;;5.50;99.90;;;;;;4958458;28;20052;-82
2022/11/22 03:45:44;;;;;;;0.80;0.80;;;5.60;99.90;;;;;;4936274;28;20127;-82
2022/11/22 03:48:10;;;;;;;1.00;1.00;;;5.70;99.90;;;;;;4959503;28;20839;-81
2022/11/22 03:50:36;;;;;;;0.70;0.70;;;5.60;99.90;;;;;;4965852;28;20044;-82
2022/11/22 03:53:02;;;;;;;0.80;0.80;;;5.60;99.90;;;;;;4968405;28;20127;-80
2022/11/22 03:55:28;;;;;;;0.80;0.80;;;5.60;99.90;;;;;;4962296;28;20129;-81
2022/11/22 03:57:53;;;;;;;0.70;0.70;;;5.70;99.90;;;;;;4965106;28;20166;-81
2022/11/22 04:00:19;;;;;;;0.70;0.70;;;5.70;99.90;;;;;;4958927;28;20051;-81
2022/11/22 04:02:45;;;;;;;0.70;0.70;;;5.70;99.90;;;;;;4963024;28;20052;-81
2022/11/22 04:05:11;;;;;;;0.70;0.70;;;5.70;99.90;;;;;;4968591;28;20045;-82
2022/11/22 04:07:37;;;;;;;0.80;0.80;;;5.80;99.90;;;;;;4965111;28;20048;-82
2022/11/22 04:10:04;;;;;;;0.70;0.70;;;5.80;99.90;;;;;;4965425;28;20055;-82
2022/11/22 04:12:30;;;;;;;0.70;0.70;;;5.80;99.90;;;;;;4979356;28;20075;-81
2022/11/22 04:15:08;;;;;;;0.70;0.70;;;5.80;99.90;;;;;;4946729;28;20126;-82
2022/11/22 04:17:39;;;;;;;0.70;0.70;;;5.80;99.90;;;;;;4955237;28;20045;-81
2022/11/22 04:23:21;;;;;;;0.70;0.70;;;6.00;99.90;;;;;;4961335;28;20048;-81
2022/11/22 04:25:49;;;;;;;0.80;0.80;;;6.00;99.90;;;;;;4965126;28;20296;-82
2022/11/22 04:28:17;;;;;;;0.70;0.70;;;6.00;99.90;;;;;;4966557;28;21018;-81
2022/11/22 04:33:28;;;;;;;0.80;0.80;;;6.00;99.90;;;;;;4958529;28;20779;-81
2022/11/22 04:35:54;;;;;;;0.80;0.80;;;6.00;99.90;;;;;;4959758;28;20181;-81
2022/11/22 04:38:21;;;;;;;0.70;0.70;;;6.00;99.90;;;;;;4939251;28;20207;-82
2022/11/22 04:40:47;;;;;;;0.70;0.70;;;6.00;99.90;;;;;;4959125;28;20369;-82
2022/11/22 04:46:07;;;;;;;0.80;0.80;;;6.00;99.90;;;;;;4962774;28;20505;-81
2022/11/22 04:48:33;;;;;;;0.80;0.80;;;6.10;99.90;;;;;;4961106;28;20600;-81
2022/11/22 04:53:43;;;;;;;0.70;0.70;;;6.10;99.90;;;;;;4957840;28;20116;-81
2022/11/22 04:56:10;;;;;;;0.70;0.70;;;6.00;99.90;;;;;;4964005;28;20838;-81
2022/11/22 04:58:35;;;;;;;0.80;0.80;;;6.10;99.90;;;;;;4981116;28;20833;-81
2022/11/22 05:01:01;;;;;;;0.70;0.70;;;6.10;99.90;;;;;;4957391;28;20251;-82
2022/11/22 05:03:27;;;;;;;0.80;0.80;;;6.20;99.90;;;;;;4968236;28;20540;-81
2022/11/22 05:05:53;;;;;;;0.70;0.70;;;6.20;99.90;;;;;;4980361;28;20048;-82
2022/11/22 05:08:19;;;;;;;0.70;0.70;;;6.20;99.90;;;;;;4968179;28;20074;-82
2022/11/22 05:10:56;;;;;;;0.70;0.70;;;6.20;99.90;;;;;;4972270;28;20053;-82
2022/11/22 05:13:37;;;;;;;0.70;0.70;;;6.30;99.90;;;;;;4959735;28;20159;-81
2022/11/22 05:16:05;;;;;;;0.70;0.70;;;6.20;99.90;;;;;;4958901;28;20290;-81
2022/11/22 05:18:31;;;;;;;0.80;0.80;;;6.30;99.90;;;;;;4965595;28;20210;-81
2022/11/22 05:20:59;;;;;;;0.70;0.70;;;6.30;99.90;;;;;;4940920;28;20045;-80
2022/11/22 05:26:10;;;;;;;0.70;0.70;;;6.30;99.90;;;;;;4954160;28;20619;-81
2022/11/22 05:28:37;;;;;;;0.70;0.70;;;6.30;99.90;;;;;;4955884;28;20041;-81
2022/11/22 05:31:11;;;;;;;0.70;0.70;;;6.50;99.90;;;;;;4956834;28;20086;-81
2022/11/22 05:33:39;;;;;;;0.70;0.70;;;6.40;99.90;;;;;;4965422;28;20755;-80
2022/11/22 05:36:05;;;;;;;0.70;0.70;;;6.40;99.90;;;;;;4961212;28;20433;-80
2022/11/22 05:38:34;;;;;;;0.70;0.70;;;6.40;99.90;;;;;;4955798;28;20076;-80
2022/11/22 05:41:01;;;;;;;0.70;0.70;;;6.50;99.90;;;;;;4939921;28;20574;-81
2022/11/22 05:43:28;;;;;;;0.70;0.70;;;6.40;99.90;;;;;;4954444;28;20040;-80
2022/11/22 05:45:54;;;;;;;0.70;0.70;;;6.50;99.90;;;;;;4962610;28;20675;-80
2022/11/22 05:48:19;;;;;;;0.70;0.70;;;6.40;99.90;;;;;;4954425;28;20113;-80
2022/11/22 05:50:45;;;;;;;0.70;0.70;;;6.50;99.90;;;;;;4963983;28;20090;-80
2022/11/22 05:53:12;;;;;;;0.70;0.70;;;6.50;99.90;;;;;;4959961;28;20524;-80
2022/11/22 05:55:37;;;;;;;0.70;0.70;;;6.40;99.90;;;;;;4957903;28;20428;-81
2022/11/22 05:58:03;;;;;;;0.70;0.70;;;6.40;99.90;;;;;;4940408;28;20783;-81
2022/11/22 06:00:29;;;;;;;0.70;0.70;;;6.50;99.90;;;;;;4959500;28;20520;-81
2022/11/22 06:03:02;;;;;;;0.70;0.70;;;6.40;99.90;;;;;;4959635;28;20045;-80
2022/11/22 06:05:29;;;;;;;0.80;0.80;;;6.40;99.90;;;;;;4961329;28;20775;-81
2022/11/22 06:07:59;;;;;;;0.70;0.70;;;6.40;99.90;;;;;;4943051;28;20044;-81
2022/11/22 06:10:25;;;;;;;0.70;0.70;;;6.50;99.90;;;;;;4955172;28;20059;-81
2022/11/22 06:12:51;;;;;;;0.70;0.70;;;6.50;99.90;;;;;;4943288;28;20051;-81
2022/11/22 06:15:17;;;;;;;0.70;0.70;;;6.40;99.90;;;;;;4961776;28;20044;-81
2022/11/22 06:17:42;;;;;;;0.70;0.70;;;6.60;99.90;;;;;;4958243;28;20858;-81
2022/11/22 06:20:08;;;;;;;0.70;0.70;;;6.40;99.90;;;;;;4962260;28;20449;-81
2022/11/22 06:22:34;;;;;;;0.70;0.70;;;6.50;99.90;;;;;;4957528;28;20799;-80
2022/11/22 06:25:00;;;;;;;0.70;0.70;;;6.40;99.90;;;;;;4961102;28;20149;-81
2022/11/22 06:27:26;;;;;;;0.70;0.70;;;6.50;99.90;;;;;;4962521;28;20238;-81
2022/11/22 06:29:52;;;;;;;0.70;0.70;;;6.50;99.90;;;;;;4939435;28;20452;-81
2022/11/22 06:32:17;;;;;;;0.70;0.70;;;6.30;99.90;;;;;;4964075;28;20850;-80
2022/11/22 06:34:43;;;;;;;0.70;0.70;;;6.40;99.90;;;;;;4960307;28;20131;-80
2022/11/22 06:37:09;;;;;;;0.70;0.70;;;6.30;99.90;;;;;;4963736;28;20051;-80
2022/11/22 06:39:35;;;;;;;0.70;0.70;;;6.30;99.90;;;;;;4959325;28;20048;-80
2022/11/22 06:42:01;;;;;;;0.70;0.70;;;6.20;99.90;;;;;;4962440;28;20040;-79
2022/11/22 06:44:26;;;;;;;0.70;0.70;;;6.20;99.90;;;;;;4960855;28;21154;-81
2022/11/22 06:46:52;;;;;;;0.70;0.70;;;6.10;99.90;;;;;;4959742;28;20302;-81
2022/11/22 06:49:18;;;;;;;0.70;0.70;;;6.10;99.90;;;;;;4979500;28;20212;-79
2022/11/22 06:51:44;;;;;;;0.70;0.70;;;6.20;99.90;;;;;;4943897;28;20249;-80
2022/11/22 06:54:10;;;;;;;0.70;0.70;;;6.20;99.90;;;;;;4950427;28;20567;-80
2022/11/22 06:56:38;;;;;;;0.70;0.70;;;6.20;99.90;;;;;;4953219;28;20603;-80
2022/11/22 06:59:06;;;;;;;0.70;0.70;;;6.20;99.90;;;;;;4951330;28;20048;-79
2022/11/22 07:01:33;;;;;;;0.70;0.70;;;6.40;99.90;;;;;;4974878;28;20390;-80
2022/11/22 07:04:01;;;;;;;0.70;0.70;;;6.40;99.90;;;;;;4934535;28;20602;-79
2022/11/22 07:06:32;;;;;;;0.70;0.70;;;6.30;99.90;;;;;;4955222;28;20063;-80
2022/11/22 07:08:59;;;;;;;0.70;0.70;;;6.40;99.90;;;;;;4956134;28;20083;-80
2022/11/22 07:11:28;;;;;;;0.77;0.77;;;6.40;99.90;;;;;;4960552;28;20057;-79
2022/11/22 07:13:56;;;;;;;0.70;0.70;;;6.50;99.90;;;;;;4955262;28;20550;-81
2022/11/22 07:16:21;;;;;;;0.70;0.70;;;6.40;99.90;;;;;;4958810;28;20076;-79
2022/11/22 07:18:48;;;;;;;0.70;0.70;;;6.40;99.90;;;;;;4959310;28;20169;-81
2022/11/22 07:21:18;;;;;;;0.70;0.70;;;6.50;99.90;;;;;;4960755;28;20253;-80
2022/11/22 07:23:45;;;;;;;0.70;0.70;;;6.50;99.90;;;;;;4957945;28;20550;-80
2022/11/22 07:26:12;;;;;;;0.70;0.70;;;6.50;99.90;;;;;;4963909;28;20420;-81
2022/11/22 07:28:38;;;;;;;0.70;0.70;;;6.60;99.90;;;;;;4955422;28;20465;-80
2022/11/22 07:31:07;;;;;;;0.70;0.70;;;6.60;99.90;;;;;;4966852;28;20639;-78
2022/11/22 07:33:33;;;;;;;0.80;0.80;;;6.60;99.90;;;;;;4951313;28;20151;-80
2022/11/22 07:36:10;;;;;;;0.70;0.70;;;6.50;99.90;;;;;;4958739;28;20440;-79
2022/11/22 07:38:36;;;;;;;0.70;0.70;;;6.50;99.90;;;;;;4961146;28;21301;-80
2022/11/22 07:41:02;;;;;;;0.70;0.70;;;6.40;99.90;;;;;;4928551;28;20047;-81
2022/11/22 07:43:28;;;;;;;0.70;0.70;;;6.40;99.90;;;;;;4955705;28;20267;-80
2022/11/22 07:46:02;;;;;;;0.60;0.60;;;6.30;99.90;;;;;;4975646;28;20539;-80
2022/11/22 07:48:28;;;;;;;;;;;6.20;99.90;;;;;;4961440;28;20125;-81
2022/11/22 07:50:54;;;;;;;0.70;0.70;;;6.20;99.90;;;;;;4961383;28;19920;-81
2022/11/22 07:53:20;;;;;;;0.70;0.70;;;6.30;99.90;;;;;;4938555;28;20041;-82
2022/11/22 07:55:46;;;;;;;0.80;0.80;;;6.40;99.90;;;;;;4963107;28;20045;-79
2022/11/22 07:58:11;;;;;;;0.70;0.70;;;6.40;99.90;;;;;;4959982;28;20397;-81
2022/11/22 08:00:37;;;;;;;0.70;0.70;;;6.40;99.90;;;;;;4960961;28;20044;-80
2022/11/22 08:03:03;;;;;;;0.70;0.70;;;6.40;99.90;;;;;;4942616;28;20113;-81
2022/11/22 08:05:29;;;;;;;0.70;0.70;;;6.50;99.90;;;;;;4957773;28;20051;-81
2022/11/22 08:07:54;;;;;;;0.70;0.70;;;6.60;99.90;;;;;;4961563;28;20048;-80
2022/11/22 08:10:21;;;;;;;0.70;0.70;;;6.60;99.90;;;;;;4938640;28;20873;-79
2022/11/22 08:12:47;;;;;;;0.70;0.70;;;6.70;99.90;;;;;;4955364;28;20804;-81
2022/11/22 08:15:15;;;;;;;0.70;0.70;;;6.60;99.90;;;;;;4978109;28;20449;-79
2022/11/22 08:17:41;;;;;;;0.73;0.73;;;6.60;99.90;;;;;;4974979;28;20552;-81
2022/11/22 08:20:08;;;;;;;0.70;0.70;;;6.70;99.90;;;;;;4960426;28;20048;-79
2022/11/22 08:22:36;;;;;;;0.70;0.70;;;6.70;99.90;;;;;;4960945;28;20584;-81
2022/11/22 08:25:02;;;;;;;0.70;0.70;;;6.80;99.90;;;;;;4956658;28;20049;-79
2022/11/22 08:27:27;;;;;;;0.80;0.80;;;6.90;99.90;;;;;;4958329;28;20079;-80
2022/11/22 08:29:53;;;;;;;0.80;0.80;;;7.00;99.90;;;;;;4961206;28;20105;-81
2022/11/22 08:32:19;;;;;;;0.80;0.80;;;7.00;99.90;;;;;;4939211;28;20048;-80
2022/11/22 08:34:45;;;;;;;0.70;0.70;;;7.10;99.90;;;;;;4957507;28;20083;-80
2022/11/22 08:37:10;;;;;;;0.70;0.70;;;7.20;99.90;;;;;;4943520;28;20058;-81
2022/11/22 08:39:36;;;;;;;0.70;0.70;;;7.30;99.90;;;;;;4959505;28;20058;-80
2022/11/22 08:42:02;;;;;;;0.70;0.70;;;7.30;99.90;;;;;;4958697;28;20461;-79
2022/11/22 08:44:34;;;;;;;0.70;0.70;;;7.40;99.90;;;;;;4961047;28;20063;-81
2022/11/22 08:46:59;;;;;;;0.70;0.70;;;7.40;99.90;;;;;;4936508;28;20075;-79
2022/11/22 08:49:25;;;;;;;0.70;0.70;;;7.40;99.90;;;;;;4954726;28;20044;-79
2022/11/22 08:51:51;;;;;;;0.70;0.70;;;7.50;99.90;;;;;;4962476;28;20133;-80
2022/11/22 08:54:17;;;;;;;0.70;0.70;;;7.50;99.90;;;;;;4949883;28;20071;-81
2022/11/22 08:56:43;;;;;;;0.70;0.70;;;7.50;99.90;;;;;;4962838;28;20051;-81
2022/11/22 08:59:08;;;;;;;0.60;0.60;;;7.60;99.90;;;;;;4958969;28;20063;-83
2022/11/22 09:01:34;;;;;;;0.70;0.70;;;7.60;99.90;;;;;;4961009;28;20272;-80
2022/11/22 09:04:00;;;;;;;0.70;0.70;;;7.70;99.90;;;;;;4957645;28;20110;-81
2022/11/22 09:06:25;;;;;;;0.70;0.70;;;7.80;99.90;;;;;;4975699;28;20250;-81
2022/11/22 09:08:51;;;;;;;0.60;0.60;;;7.80;99.90;;;;;;4955887;28;20057;-80
2022/11/22 09:11:19;;;;;;;0.60;0.60;;;7.80;99.90;;;;;;4948960;28;21046;-81
2022/11/22 09:13:45;;;;;;;0.70;0.70;;;7.90;99.90;;;;;;4969341;28;20148;-79
2022/11/22 09:16:17;;;;;;;0.60;0.60;;;7.90;99.90;;;;;;4964865;28;20505;-80
2022/11/22 09:18:43;;;;;;;0.68;0.68;;;7.90;99.90;;;;;;4955294;28;20215;-83
2022/11/22 09:21:14;;;;;;;0.60;0.60;;;7.90;99.90;;;;;;4946106;28;20354;-80
2022/11/22 09:23:44;;;;;;;0.60;0.60;;;7.90;99.90;;;;;;4960163;28;20051;-82
2022/11/22 09:26:16;;;;;;;0.60;0.60;;;8.00;99.90;;;;;;4963042;28;20052;-79
2022/11/22 09:28:42;;;;;;;0.70;0.70;;;8.00;99.90;;;;;;4957232;28;20048;-81
2022/11/22 09:31:11;;;;;;;0.60;0.60;;;7.90;99.90;;;;;;4942133;28;20189;-80
2022/11/22 09:33:39;;;;;;;0.65;0.65;;;7.90;99.90;;;;;;4955689;28;20211;-82
2022/11/22 09:36:11;;;;;;;0.70;0.70;;;8.00;99.90;;;;;;4958767;28;20647;-80
2022/11/22 09:38:37;;;;;;;0.70;0.70;;;8.10;99.90;;;;;;4961190;28;20524;-82
2022/11/22 09:41:45;;;;;;;0.60;0.60;;;8.10;99.90;;;;;;4962457;28;20975;-83
2022/11/22 09:44:37;;;;;;;0.60;0.60;;;8.00;99.90;;;;;;4938353;28;20060;-81
2022/11/22 09:47:59;;;;;;;0.70;0.70;;;8.00;99.90;;;;;;4958562;28;20502;-81
2022/11/22 09:50:36;;;;;;;0.60;0.60;;;8.00;99.90;;;;;;4878488;28;20836;-82
2022/11/22 09:53:24;;;;;;;0.70;0.70;;;8.10;99.90;;;;;;4875942;28;20360;-81
2022/11/22 09:56:04;;;;;;;0.70;0.70;;;8.10;99.90;;;;;;4940326;28;20417;-82
2022/11/22 09:58:34;;;;;;;0.70;0.70;;;8.00;99.90;;;;;;4957609;28;20048;-80
2022/11/22 10:01:26;;;;;;;0.60;0.60;;;8.00;99.90;;;;;;4954041;28;20357;-83
2022/11/22 10:04:01;;;;;;;0.70;0.70;;;8.10;99.90;;;;;;4960082;28;20124;-81
2022/11/22 10:06:34;;;;;;;0.60;0.60;;;8.20;99.90;;;;;;4954657;28;20386;-81
2022/11/22 10:09:28;;;;;;;0.65;0.65;;;8.10;99.90;;;;;;4954952;28;20452;-82
2022/11/22 10:12:14;;;;;;;0.70;0.70;;;8.10;99.90;;;;;;4961410;28;20625;-83
2022/11/22 10:14:55;;;;;;;0.70;0.70;;;8.20;99.90;;;;;;4964057;28;20080;-81
2022/11/22 10:18:08;;;;;;;0.70;0.70;;;8.20;99.90;;;;;;4957741;28;20482;-81
2022/11/22 10:20:39;;;;;;;0.70;0.70;;;8.10;99.90;;;;;;4957488;28;20049;-83
2022/11/22 10:23:22;;;;;;;0.70;0.70;;;8.20;99.90;;;;;;4954347;28;20423;-82
2022/11/22 10:26:19;;;;;;;0.70;0.70;;;8.30;99.90;;;;;;4957845;28;20076;-82
2022/11/22 10:29:09;;;;;;;0.70;0.70;;;8.40;99.90;;;;;;4933949;28;20052;-82
2022/11/22 10:31:42;;;;;;;0.68;0.68;;;8.80;99.90;;;;;;4976051;28;20865;-82
2022/11/22 10:34:20;;;;;;;0.63;0.63;;;8.90;99.90;;;;;;4957640;28;20040;-81
2022/11/22 10:36:49;;;;;;;0.60;0.60;;;8.90;99.90;;;;;;4951966;28;20429;-82
2022/11/22 10:39:22;;;;;;;0.60;0.60;;;8.90;99.90;;;;;;4958183;28;20052;-82
2022/11/22 10:42:30;;;;;;;0.60;0.60;;;9.00;99.90;;;;;;4956013;28;20561;-80
2022/11/22 10:45:20;;;;;;;0.60;0.60;;;8.80;99.90;;;;;;4922477;28;20090;-81
2022/11/22 10:48:07;;;;;;;0.60;0.60;;;8.90;99.90;;;;;;4959980;28;20456;-83
2022/11/22 10:50:36;;;;;;;0.60;0.60;;;8.80;99.90;;;;;;4972866;28;20115;-82
2022/11/22 10:53:29;;;;;;;0.60;0.60;;;8.80;99.90;;;;;;4956124;28;20465;-80
2022/11/22 10:56:07;;;;;;;0.60;0.60;;;8.70;99.90;;;;;;4959086;28;20139;-82
2022/11/22 10:58:56;;;;;;;0.60;0.60;;;8.70;99.90;;;;;;4957761;28;20113;-81
2022/11/22 11:01:39;;;;;;;0.60;0.60;;;8.80;99.90;;;;;;4955318;28;20053;-85
2022/11/22 11:04:06;;;;;;;0.60;0.60;;;8.80;99.90;;;;;;4959668;28;20792;-84
2022/11/22 11:06:44;;;;;;;0.60;0.60;;;9.00;99.90;;;;;;4955228;28;20542;-81
2022/11/22 11:09:12;;;;;;;0.60;0.60;;;9.10;99.90;;;;;;4949013;28;20115;-82
2022/11/22 11:11:40;;;;;;;0.60;0.60;;;8.90;99.90;;;;;;4955106;28;20997;-84
2022/11/22 11:14:27;;;;;;;0.60;0.60;;;8.90;99.90;;;;;;4940551;28;20869;-80
2022/11/22 11:16:53;;;;;;;0.60;0.60;;;8.90;99.90;;;;;;4957314;28;20776;-81
2022/11/22 11:19:22;;;;;;;0.60;0.60;;;8.90;99.90;;;;;;4951588;28;20063;-81
2022/11/22 11:21:59;;;;;;;0.60;0.60;;;9.00;99.90;;;;;;4969433;28;20056;-81
2022/11/22 11:24:28;;;;;;;0.60;0.60;;;9.00;99.90;;;;;;4947142;28;20045;-82
2022/11/22 11:26:57;;;;;;;0.70;0.70;;;9.10;99.90;;;;;;4960211;28;20429;-81
2022/11/22 11:29:22;;;;;;;0.60;0.60;;;9.20;99.90;;;;;;4938353;28;20059;-79
2022/11/22 11:32:02;;;;;;;0.60;0.60;;;9.20;99.90;;;;;;4955069;28;20032;-77
2022/11/22 11:34:29;;;;;;;0.60;0.60;;;9.20;99.90;;;;;;4950174;28;20579;-81
2022/11/22 11:36:56;;;;;;;0.60;0.60;;;9.10;99.90;;;;;;4942145;28;20537;-79
2022/11/22 11:39:27;;;;;;;0.60;0.60;;;9.10;99.90;;;;;;4970060;28;20469;-80
2022/11/22 11:41:53;;;;;;;0.60;0.60;;;9.10;99.90;;;;;;4951673;28;20726;-81
2022/11/22 11:44:33;;;;;;;0.60;0.60;;;9.10;99.90;;;;;;4955577;28;20082;-82
2022/11/22 11:46:59;;;;;;;0.60;0.60;;;9.00;99.90;;;;;;4973689;28;20037;-81
2022/11/22 11:49:33;;;;;;;0.60;0.60;;;9.00;99.90;;;;;;4948982;28;20072;-79
2022/11/22 11:51:59;;;;;;;0.60;0.60;;;9.00;99.90;;;;;;4955517;28;20070;-83
2022/11/22 11:54:33;;;;;;;0.60;0.60;;;9.10;99.90;;;;;;4957311;28;20420;-80
2022/11/22 11:57:02;;;;;;;0.60;0.60;;;9.00;99.90;;;;;;4958035;28;20801;-82
2022/11/22 11:59:46;;;;;;;0.60;0.60;;;9.10;99.90;;;;;;4939883;28;20048;-82
2022/11/22 12:02:29;;;;;;;0.60;0.60;;;9.00;99.90;;;;;;4952799;28;20612;-80
2022/11/22 12:05:02;;;;;;;0.68;0.68;;;9.00;99.90;;;;;;4956689;28;20053;-83
2022/11/22 12:07:34;;;;;;;0.60;0.60;;;9.00;99.90;;;;;;4960329;28;20491;-80
2022/11/22 12:10:01;;;;;;;0.60;0.60;;;9.10;99.90;;;;;;4963835;28;20522;-83
2022/11/22 12:12:50;;;;;;;0.60;0.60;;;9.10;99.90;;;;;;4957265;28;20263;-80
2022/11/22 12:15:28;;;;;;;0.60;0.60;;;9.10;99.90;;;;;;4948739;28;20048;-82
2022/11/22 12:18:15;;;;;;;0.60;0.60;;;9.10;99.90;;;;;;4956845;28;20056;-80
2022/11/22 12:21:17;;;;;;;0.60;0.60;;;9.10;99.90;;;;;;4961401;28;20041;-83
2022/11/22 12:23:46;;;;;;;0.60;0.60;;;9.10;99.90;;;;;;4962583;28;20467;-82
2022/11/22 12:26:13;;;;;;;0.60;0.60;;;9.10;99.90;;;;;;4956738;28;20053;-81
2022/11/22 12:28:39;;;;;;;0.60;0.60;;;9.10;99.90;;;;;;4970328;28;20956;-81
2022/11/22 12:31:13;;;;;;;0.60;0.60;;;9.10;99.90;;;;;;4962330;28;20050;-83
2022/11/22 12:33:48;;;;;;;0.60;0.60;;;9.00;99.90;;;;;;4957037;28;20058;-82
2022/11/22 12:36:21;;;;;;;0.60;0.60;;;8.90;99.90;;;;;;4954155;28;20075;-80
2022/11/22 12:38:50;;;;;;;0.60;0.60;;;8.90;99.90;;;;;;4955869;28;20132;-81
2022/11/22 12:41:20;;;;;;;0.55;0.55;;;8.80;99.90;;;;;;4962204;28;20135;-81
2022/11/22 12:43:57;;;;;;;0.60;0.60;;;8.80;99.90;;;;;;4957391;28;20044;-81
2022/11/22 12:46:30;;;;;;;0.60;0.60;;;8.70;99.90;;;;;;4959424;28;20056;-79
2022/11/22 12:49:09;;;;;;;0.60;0.60;;;8.70;99.90;;;;;;4972671;28;20645;-81
2022/11/22 12:51:45;;;;;;;0.60;0.60;;;8.70;99.90;;;;;;4956203;28;20071;-79
2022/11/22 12:54:18;;;;;;;0.60;0.60;;;8.60;99.90;;;;;;4937822;28;20060;-79
2022/11/22 12:56:52;;;;;;;0.70;0.70;;;8.70;99.90;;;;;;4960835;28;20033;-80
2022/11/22 12:59:48;;;;;;;0.70;0.70;;;8.60;99.90;;;;;;4961080;28;20040;-80
2022/11/22 13:02:57;;;;;;;0.60;0.60;;;8.70;99.90;;;;;;4960641;28;20048;-79
2022/11/22 13:05:30;;;;;;;0.60;0.60;;;8.60;99.90;;;;;;4972431;28;20071;-80
2022/11/22 13:08:13;;;;;;;0.60;0.60;;;8.70;99.90;;;;;;4954570;28;20056;-81
2022/11/22 13:10:52;;;;;;;0.60;0.60;;;8.70;99.90;;;;;;4956925;28;20053;-81
2022/11/22 13:13:25;;;;;;;0.60;0.60;;;8.60;99.90;;;;;;4952187;28;20807;-80
2022/11/22 13:15:54;;;;;;;0.70;0.70;;;8.60;99.90;;;;;;4956302;28;20056;-80
2022/11/22 13:18:29;;;;;;;0.60;0.60;;;8.60;99.90;;;;;;4960487;28;20044;-79
2022/11/22 13:21:33;;;;;;;0.70;0.70;;;8.60;99.90;;;;;;4960043;28;20583;-79
2022/11/22 13:24:25;;;;;;;0.60;0.60;;;8.60;99.90;;;;;;4974226;28;20041;-79
2022/11/22 13:27:01;;;;;;;0.60;0.60;;;8.60;99.90;;;;;;4955118;28;20444;-80
2022/11/22 13:29:30;;;;;;;0.60;0.60;;;8.50;99.90;;;;;;4953214;28;20549;-80